createdAt,value
2023-03-26T00:01:14.008Z,20.82
2023-03-26T00:03:40.939Z,20.82
2023-03-26T00:06:09.778Z,20.81
2023-03-26T00:08:37.254Z,20.79
2023-03-26T00:11:04.638Z,20.80
2023-03-26T00:13:32.217Z,20.79
2023-03-26T00:15:59.064Z,20.77
2023-03-26T00:18:30.206Z,20.76
2023-03-26T00:20:58.089Z,20.76
2023-03-26T00:23:25.060Z,20.76
2023-03-26T00:25:51.879Z,20.76
2023-03-26T00:28:21.551Z,20.75
2023-03-26T00:30:57.063Z,20.74
2023-03-26T00:33:23.925Z,20.74
2023-03-26T00:35:58.806Z,20.74
2023-03-26T00:38:25.907Z,20.75
2023-03-26T00:40:52.625Z,20.74
2023-03-26T00:43:19.730Z,20.73
2023-03-26T00:45:49.620Z,20.70
2023-03-26T00:48:16.821Z,20.71
2023-03-26T00:50:44.488Z,20.71
2023-03-26T00:53:14.354Z,20.71
2023-03-26T00:55:45.246Z,20.69
2023-03-26T00:58:12.791Z,20.69
2023-03-26T01:00:48.376Z,20.67
2023-03-26T01:03:24.806Z,20.66
2023-03-26T01:06:04.858Z,20.66
2023-03-26T01:08:46.710Z,20.65
2023-03-26T01:11:25.899Z,20.65
2023-03-26T01:14:31.173Z,20.65
2023-03-26T01:17:01.974Z,20.64
2023-03-26T01:19:31.708Z,20.63
2023-03-26T01:21:58.932Z,20.62
2023-03-26T01:24:25.648Z,20.61
2023-03-26T01:27:09.692Z,20.61
2023-03-26T01:29:57.066Z,20.60
2023-03-26T01:32:23.600Z,20.61
2023-03-26T01:35:01.618Z,20.59
2023-03-26T01:37:52.605Z,20.59
2023-03-26T01:40:38.639Z,20.58
2023-03-26T01:43:29.003Z,20.57
2023-03-26T01:45:56.619Z,20.57
2023-03-26T01:48:30.736Z,20.56
2023-03-26T01:50:58.926Z,20.56
2023-03-26T01:53:25.652Z,20.55
2023-03-26T01:56:18.400Z,20.55
2023-03-26T01:59:03.424Z,20.55
2023-03-26T02:01:33.253Z,20.54
2023-03-26T02:04:11.238Z,20.53
2023-03-26T02:06:51.612Z,20.53
2023-03-26T02:09:22.383Z,20.52
2023-03-26T02:11:49.003Z,20.52
2023-03-26T02:14:15.820Z,20.50
2023-03-26T02:16:47.102Z,20.52
2023-03-26T02:19:21.842Z,20.51
2023-03-26T02:21:52.141Z,20.52
2023-03-26T02:24:19.551Z,20.52
2023-03-26T02:26:46.132Z,20.51
2023-03-26T02:29:14.045Z,20.49
2023-03-26T02:31:41.052Z,20.50
2023-03-26T02:34:07.846Z,20.49
2023-03-26T02:36:36.037Z,20.49
2023-03-26T02:39:02.909Z,20.49
2023-03-26T02:41:29.516Z,20.48
2023-03-26T02:43:56.123Z,20.47
2023-03-26T02:46:22.771Z,20.46
2023-03-26T02:48:49.895Z,20.46
2023-03-26T02:51:18.237Z,20.45
2023-03-26T02:53:44.889Z,20.45
2023-03-26T02:56:12.583Z,20.45
2023-03-26T02:58:39.284Z,20.45
2023-03-26T03:01:05.988Z,20.43
2023-03-26T03:03:32.682Z,20.43
2023-03-26T03:05:59.448Z,20.42
2023-03-26T03:08:26.801Z,20.41
2023-03-26T03:11:02.227Z,20.39
2023-03-26T03:13:28.958Z,20.40
2023-03-26T03:15:56.106Z,20.38
2023-03-26T03:18:23.042Z,20.38
2023-03-26T03:20:49.973Z,20.38
2023-03-26T03:23:16.737Z,20.37
2023-03-26T03:25:43.431Z,20.36
2023-03-26T03:28:10.468Z,20.36
2023-03-26T03:30:37.112Z,20.35
2023-03-26T03:33:03.961Z,20.36
2023-03-26T03:35:30.627Z,20.35
2023-03-26T03:37:58.043Z,20.34
2023-03-26T03:40:24.710Z,20.34
2023-03-26T03:42:51.594Z,20.33
2023-03-26T03:45:18.417Z,20.33
2023-03-26T03:47:45.069Z,20.32
2023-03-26T03:50:11.895Z,20.32
2023-03-26T03:52:38.480Z,20.30
2023-03-26T03:55:05.526Z,20.29
2023-03-26T03:57:33.531Z,20.29
2023-03-26T04:00:00.204Z,20.28
2023-03-26T04:02:30.469Z,20.28
2023-03-26T04:05:00.137Z,20.29
2023-03-26T04:07:27.680Z,20.28
2023-03-26T04:09:54.361Z,20.27
2023-03-26T04:12:20.977Z,20.26
2023-03-26T04:14:48.246Z,20.27
2023-03-26T04:17:15.493Z,20.26
2023-03-26T04:19:44.232Z,20.26
2023-03-26T04:22:12.018Z,20.25
2023-03-26T04:24:40.187Z,20.25
2023-03-26T04:27:08.899Z,20.25
2023-03-26T04:29:42.939Z,20.23
2023-03-26T04:32:29.966Z,20.23
2023-03-26T04:35:00.226Z,20.23
2023-03-26T04:37:39.593Z,20.21
2023-03-26T04:40:12.432Z,20.21
2023-03-26T04:42:41.706Z,20.20
2023-03-26T04:45:09.169Z,20.19
2023-03-26T04:47:37.157Z,20.20
2023-03-26T04:50:05.012Z,20.19
2023-03-26T04:52:31.814Z,20.19
2023-03-26T04:54:58.400Z,20.18
2023-03-26T04:57:38.952Z,20.18
2023-03-26T05:00:20.394Z,20.20
2023-03-26T05:02:50.503Z,20.31
2023-03-26T05:05:17.799Z,20.54
2023-03-26T05:07:44.472Z,20.70
2023-03-26T05:10:13.187Z,20.86
2023-03-26T05:12:39.835Z,21.01
2023-03-26T05:15:07.002Z,21.16
2023-03-26T05:17:34.967Z,21.34
2023-03-26T05:20:01.870Z,21.56
2023-03-26T05:22:28.469Z,21.79
2023-03-26T05:24:55.056Z,21.97
2023-03-26T05:27:21.752Z,22.12
2023-03-26T05:29:48.363Z,22.23
2023-03-26T05:32:15.044Z,22.32
2023-03-26T05:34:41.821Z,22.40
2023-03-26T05:37:09.284Z,22.46
2023-03-26T05:39:35.920Z,22.52
2023-03-26T05:42:02.753Z,22.57
2023-03-26T05:44:29.505Z,22.62
2023-03-26T05:46:56.094Z,22.66
2023-03-26T05:49:22.735Z,22.69
2023-03-26T05:51:49.374Z,22.74
2023-03-26T05:54:16.022Z,22.77
2023-03-26T05:56:42.624Z,22.82
2023-03-26T05:59:09.272Z,22.85
2023-03-26T06:01:35.871Z,22.89
2023-03-26T06:04:02.564Z,22.92
2023-03-26T06:06:29.976Z,22.94
2023-03-26T06:09:01.956Z,22.98
2023-03-26T06:11:30.330Z,23.02
2023-03-26T06:13:56.893Z,23.05
2023-03-26T06:16:27.269Z,23.08
2023-03-26T06:18:56.337Z,23.11
2023-03-26T06:21:24.098Z,23.12
2023-03-26T06:23:51.770Z,23.15
2023-03-26T06:26:18.562Z,23.17
2023-03-26T06:28:45.300Z,23.18
2023-03-26T06:31:12.058Z,23.19
2023-03-26T06:33:38.750Z,23.20
2023-03-26T06:36:05.963Z,23.20
2023-03-26T06:38:32.645Z,23.21
2023-03-26T06:41:03.512Z,23.23
2023-03-26T06:43:33.783Z,23.24
2023-03-26T06:46:01.419Z,23.24
2023-03-26T06:48:28.025Z,23.28
2023-03-26T06:50:54.913Z,23.29
2023-03-26T06:53:21.759Z,23.31
2023-03-26T06:55:48.404Z,23.34
2023-03-26T06:58:14.962Z,23.35
2023-03-26T07:00:42.383Z,23.37
2023-03-26T07:03:09.850Z,23.40
2023-03-26T07:05:36.510Z,23.43
2023-03-26T07:08:05.567Z,23.45
2023-03-26T07:10:32.343Z,23.47
2023-03-26T07:13:00.300Z,23.51
2023-03-26T07:15:28.305Z,23.54
2023-03-26T07:17:55.547Z,23.55
2023-03-26T07:20:22.290Z,23.60
2023-03-26T07:22:49.303Z,23.61
2023-03-26T07:25:16.492Z,23.65
2023-03-26T07:27:58.378Z,23.70
2023-03-26T07:30:47.523Z,23.73
2023-03-26T07:33:21.678Z,23.77
2023-03-26T07:35:54.420Z,23.81
2023-03-26T07:38:36.304Z,23.85
2023-03-26T07:41:17.775Z,23.90
2023-03-26T07:43:57.471Z,23.94
2023-03-26T07:46:37.004Z,23.99
2023-03-26T07:49:05.082Z,24.05
2023-03-26T07:51:32.587Z,24.08
2023-03-26T07:54:00.781Z,24.13
2023-03-26T07:56:58.665Z,24.18
2023-03-26T07:59:27.939Z,24.20
2023-03-26T08:02:13.165Z,24.23
2023-03-26T08:05:18.988Z,24.29
2023-03-26T08:07:57.793Z,24.34
2023-03-26T08:10:32.836Z,24.34
2023-03-26T08:13:29.001Z,24.30
2023-03-26T08:16:10.310Z,24.26
2023-03-26T08:18:58.141Z,24.22
2023-03-26T08:22:03.824Z,24.20
2023-03-26T08:24:47.929Z,24.19
2023-03-26T08:27:27.532Z,24.19
2023-03-26T08:30:02.156Z,24.16
2023-03-26T08:32:28.903Z,24.14
2023-03-26T08:34:57.477Z,24.12
2023-03-26T08:37:24.143Z,24.13
2023-03-26T08:39:50.891Z,24.12
2023-03-26T08:42:32.086Z,24.12
2023-03-26T08:45:23.088Z,24.12
2023-03-26T08:48:09.225Z,24.13
2023-03-26T08:50:55.606Z,24.12
2023-03-26T08:53:42.557Z,24.12
2023-03-26T08:56:16.806Z,24.12
2023-03-26T08:58:47.912Z,24.12
2023-03-26T09:01:26.696Z,24.11
2023-03-26T09:04:27.120Z,24.10
2023-03-26T09:06:59.741Z,24.06
2023-03-26T09:10:02.097Z,24.01
2023-03-26T09:12:47.153Z,24.00
2023-03-26T09:15:28.743Z,23.98
2023-03-26T09:18:14.196Z,23.95
2023-03-26T09:21:11.498Z,23.92
2023-03-26T09:24:14.136Z,23.89
2023-03-26T09:26:51.025Z,23.84
2023-03-26T09:29:43.776Z,23.80
2023-03-26T09:32:24.295Z,23.74
2023-03-26T09:35:09.930Z,23.69
2023-03-26T09:37:58.863Z,23.64
2023-03-26T09:40:35.330Z,23.58
2023-03-26T09:43:32.947Z,23.55
2023-03-26T09:46:41.277Z,23.51
2023-03-26T09:49:25.283Z,23.46
2023-03-26T09:51:55.507Z,23.44
2023-03-26T09:54:37.132Z,23.44
2023-03-26T09:57:22.606Z,23.47
2023-03-26T09:59:59.064Z,23.51
2023-03-26T10:02:45.463Z,23.51
2023-03-26T10:05:48.876Z,23.52
2023-03-26T10:08:32.937Z,23.51
2023-03-26T10:11:10.102Z,23.50
2023-03-26T10:14:01.316Z,23.44
2023-03-26T10:16:56.412Z,23.41
2023-03-26T10:19:26.164Z,23.38
2023-03-26T10:22:12.309Z,23.32
2023-03-26T10:24:59.660Z,23.27
2023-03-26T10:27:54.703Z,23.21
2023-03-26T10:30:48.672Z,23.16
2023-03-26T10:33:52.888Z,23.12
2023-03-26T10:36:35.697Z,23.07
2023-03-26T10:39:36.836Z,23.03
2023-03-26T10:42:40.838Z,22.99
2023-03-26T10:45:41.227Z,22.95
2023-03-26T10:48:10.835Z,22.92
2023-03-26T10:50:52.865Z,22.90
2023-03-26T10:53:31.279Z,22.90
2023-03-26T10:56:13.657Z,22.91
2023-03-26T10:58:48.291Z,22.91
2023-03-26T11:01:43.413Z,22.88
2023-03-26T11:04:28.654Z,22.87
2023-03-26T11:07:36.738Z,22.85
2023-03-26T11:10:33.554Z,22.83
2023-03-26T11:13:16.672Z,22.80
2023-03-26T11:15:45.785Z,22.78
2023-03-26T11:18:12.474Z,22.75
2023-03-26T11:20:42.139Z,22.72
2023-03-26T11:23:29.244Z,22.69
2023-03-26T11:25:55.708Z,22.69
2023-03-26T11:29:03.915Z,22.66
2023-03-26T11:31:56.852Z,22.66
2023-03-26T11:34:26.174Z,22.63
2023-03-26T11:36:54.355Z,22.61
2023-03-26T11:39:26.152Z,22.61
2023-03-26T11:41:55.605Z,22.58
2023-03-26T11:44:30.633Z,22.56
2023-03-26T11:46:59.051Z,22.54
2023-03-26T11:49:26.290Z,22.53
2023-03-26T11:51:53.577Z,22.53
2023-03-26T11:54:21.109Z,22.52
2023-03-26T11:57:06.022Z,22.52
2023-03-26T11:59:53.339Z,22.52
2023-03-26T12:02:32.665Z,22.50
2023-03-26T12:05:20.511Z,22.50
2023-03-26T12:07:52.441Z,22.49
2023-03-26T12:10:23.377Z,22.47
2023-03-26T12:12:51.047Z,22.46
2023-03-26T12:15:19.160Z,22.44
2023-03-26T12:17:47.075Z,22.42
2023-03-26T12:20:26.105Z,22.41
2023-03-26T12:22:59.584Z,22.40
2023-03-26T12:25:33.937Z,22.39
2023-03-26T12:28:02.977Z,22.38
2023-03-26T12:30:33.974Z,22.37
2023-03-26T12:33:03.703Z,22.36
2023-03-26T12:35:35.007Z,22.35
2023-03-26T12:38:23.498Z,22.34
2023-03-26T12:43:19.754Z,22.34
2023-03-26T12:44:55.339Z,22.32
2023-03-26T12:48:01.473Z,22.32
2023-03-26T12:50:14.791Z,22.30
2023-03-26T12:52:47.455Z,22.29
2023-03-26T12:55:56.714Z,22.29
2023-03-26T12:59:02.334Z,22.27
2023-03-26T13:01:38.996Z,22.26
2023-03-26T13:04:26.804Z,22.25
2023-03-26T13:07:10.799Z,22.24
2023-03-26T13:09:53.175Z,22.23
2023-03-26T13:12:35.559Z,22.21
2023-03-26T13:15:07.989Z,22.21
2023-03-26T13:17:42.772Z,22.20
2023-03-26T13:20:19.042Z,22.19
2023-03-26T13:22:55.465Z,22.19
2023-03-26T13:25:28.173Z,22.18
2023-03-26T13:28:07.923Z,22.18
2023-03-26T13:30:49.241Z,22.15
2023-03-26T13:33:45.270Z,22.15
2023-03-26T13:36:42.864Z,22.13
2023-03-26T13:39:30.831Z,22.13
2023-03-26T13:42:22.505Z,22.11
2023-03-26T13:45:05.091Z,22.11
2023-03-26T13:47:35.309Z,22.10
2023-03-26T13:50:14.739Z,22.10
2023-03-26T13:52:46.189Z,22.11
2023-03-26T13:55:22.448Z,22.09
2023-03-26T13:58:02.027Z,22.08
2023-03-26T14:00:54.389Z,22.08
2023-03-26T14:03:29.116Z,22.07
2023-03-26T14:05:57.080Z,22.07
2023-03-26T14:08:36.833Z,22.05
2023-03-26T14:11:10.911Z,22.04
2023-03-26T14:13:43.468Z,22.04
2023-03-26T14:16:19.421Z,22.04
2023-03-26T14:19:08.882Z,22.04
2023-03-26T14:21:48.885Z,22.03
2023-03-26T14:24:31.673Z,22.02
2023-03-26T14:27:28.174Z,22.01
2023-03-26T14:30:28.947Z,22.01
2023-03-26T14:33:14.171Z,21.98
2023-03-26T14:35:58.287Z,21.97
2023-03-26T14:38:46.306Z,21.97
2023-03-26T14:41:29.729Z,21.96
2023-03-26T14:44:11.720Z,21.94
2023-03-26T14:47:14.758Z,21.95
2023-03-26T14:50:06.516Z,21.93
2023-03-26T14:52:52.015Z,21.91
2023-03-26T14:55:24.618Z,21.90
2023-03-26T14:57:57.344Z,21.90
2023-03-26T15:00:51.215Z,21.88
2023-03-26T15:03:59.751Z,21.88
2023-03-26T15:06:51.092Z,21.88
2023-03-26T15:09:29.848Z,21.87
2023-03-26T15:12:21.361Z,21.87
2023-03-26T15:14:51.090Z,21.86
2023-03-26T15:17:32.754Z,21.85
2023-03-26T15:20:05.083Z,21.86
2023-03-26T15:22:49.725Z,21.82
2023-03-26T15:25:38.612Z,21.82
2023-03-26T15:28:23.578Z,21.81
2023-03-26T15:31:10.755Z,21.81
2023-03-26T15:34:14.805Z,21.80
2023-03-26T15:37:10.823Z,21.79
2023-03-26T15:40:09.791Z,21.78
2023-03-26T15:43:10.363Z,21.78
2023-03-26T15:45:43.726Z,21.77
2023-03-26T15:48:13.379Z,21.77
2023-03-26T15:50:45.918Z,21.76
2023-03-26T15:53:21.308Z,21.75
2023-03-26T15:56:48.932Z,21.74
2023-03-26T15:59:38.256Z,21.72
2023-03-26T16:02:04.805Z,21.72
2023-03-26T16:04:54.163Z,21.70
2023-03-26T16:07:58.824Z,21.70
2023-03-26T16:10:49.906Z,21.69
2023-03-26T16:13:39.582Z,21.69
2023-03-26T16:16:15.543Z,21.67
2023-03-26T16:18:46.930Z,21.65
2023-03-26T16:21:30.896Z,21.63
2023-03-26T16:24:08.148Z,21.63
2023-03-26T16:26:43.184Z,21.62
2023-03-26T16:29:18.325Z,21.62
2023-03-26T16:32:10.022Z,21.61
2023-03-26T16:34:52.890Z,21.61
2023-03-26T16:37:32.091Z,21.60
2023-03-26T16:40:21.420Z,21.59
2023-03-26T16:43:10.320Z,21.58
2023-03-26T16:45:53.360Z,21.58
2023-03-26T16:48:28.685Z,21.57
2023-03-26T16:50:59.097Z,21.56
2023-03-26T16:53:42.236Z,21.56
2023-03-26T16:56:16.855Z,21.55
2023-03-26T16:58:53.753Z,21.54
2023-03-26T17:01:27.295Z,21.53
2023-03-26T17:03:59.060Z,21.53
2023-03-26T17:06:36.818Z,21.53
2023-03-26T17:09:22.053Z,21.54
2023-03-26T17:12:40.039Z,21.51
2023-03-26T17:15:36.836Z,21.50
2023-03-26T17:18:22.220Z,21.50
2023-03-26T17:21:02.416Z,21.47
2023-03-26T17:23:54.308Z,21.47
2023-03-26T17:26:22.377Z,21.46
2023-03-26T17:28:51.900Z,21.44
2023-03-26T17:31:33.105Z,21.45
2023-03-26T17:34:37.338Z,21.44
2023-03-26T17:37:16.866Z,21.43
2023-03-26T17:39:49.178Z,21.42
2023-03-26T17:42:16.006Z,21.40
2023-03-26T17:44:47.718Z,21.40
2023-03-26T17:47:26.025Z,21.40
2023-03-26T17:50:01.912Z,21.41
2023-03-26T17:52:49.911Z,21.38
2023-03-26T17:55:18.934Z,21.37
2023-03-26T17:57:47.520Z,21.38
2023-03-26T18:00:41.732Z,21.37
2023-03-26T18:03:14.440Z,21.36
2023-03-26T18:05:41.106Z,21.35
2023-03-26T18:08:41.913Z,21.33
2023-03-26T18:11:14.370Z,21.32
2023-03-26T18:14:08.847Z,21.31
2023-03-26T18:16:38.269Z,21.31
2023-03-26T18:19:17.511Z,21.30
2023-03-26T18:21:44.872Z,21.30
2023-03-26T18:24:14.748Z,21.29
2023-03-26T18:26:42.782Z,21.30
2023-03-26T18:29:21.307Z,21.29
2023-03-26T18:31:49.204Z,21.28
2023-03-26T18:34:18.885Z,21.28
2023-03-26T18:37:11.527Z,21.27
2023-03-26T18:39:38.476Z,21.26
2023-03-26T18:42:06.147Z,21.26
2023-03-26T18:44:36.760Z,21.25
2023-03-26T18:47:07.122Z,21.25
2023-03-26T18:49:33.886Z,21.24
2023-03-26T18:52:00.622Z,21.24
2023-03-26T18:54:27.836Z,21.23
2023-03-26T18:56:55.137Z,21.23
2023-03-26T18:59:32.123Z,21.23
2023-03-26T19:01:59.702Z,21.22
2023-03-26T19:04:26.682Z,21.22
2023-03-26T19:06:56.022Z,21.21
2023-03-26T19:09:31.056Z,21.20
2023-03-26T19:12:09.276Z,21.20
2023-03-26T19:14:51.282Z,21.19
2023-03-26T19:17:17.876Z,21.17
2023-03-26T19:19:44.596Z,21.19
2023-03-26T19:22:11.474Z,21.18
2023-03-26T19:24:38.203Z,21.18
2023-03-26T19:27:05.443Z,21.18
2023-03-26T19:29:32.939Z,21.18
2023-03-26T19:32:04.904Z,21.17
2023-03-26T19:34:38.583Z,21.18
2023-03-26T19:37:26.445Z,21.16
2023-03-26T19:39:54.311Z,21.15
2023-03-26T19:42:43.338Z,21.14
2023-03-26T19:45:21.831Z,21.13
2023-03-26T19:48:00.376Z,21.12
2023-03-26T19:50:30.877Z,21.11
2023-03-26T19:53:17.007Z,21.12
2023-03-26T19:56:18.539Z,21.11
2023-03-26T19:58:45.331Z,21.11
2023-03-26T20:01:19.157Z,21.10
2023-03-26T20:03:49.225Z,21.10
2023-03-26T20:06:17.752Z,21.08
2023-03-26T20:08:44.375Z,21.09
2023-03-26T20:11:25.822Z,21.07
2023-03-26T20:13:52.681Z,21.09
2023-03-26T20:16:32.177Z,21.07
2023-03-26T20:19:02.418Z,21.07
2023-03-26T20:21:29.206Z,21.06
2023-03-26T20:23:55.858Z,21.07
2023-03-26T20:26:23.256Z,21.05
2023-03-26T20:28:53.432Z,21.05
2023-03-26T20:31:25.121Z,21.04
2023-03-26T20:33:53.245Z,21.06
2023-03-26T20:36:33.965Z,21.02
2023-03-26T20:39:01.213Z,21.03
2023-03-26T20:41:27.893Z,21.01
2023-03-26T20:43:54.543Z,21.02
2023-03-26T20:46:31.351Z,21.01
2023-03-26T20:48:59.572Z,21.02
2023-03-26T20:51:28.510Z,21.00
2023-03-26T20:53:55.589Z,21.00
2023-03-26T20:56:22.716Z,21.00
2023-03-26T20:58:54.788Z,20.99
2023-03-26T21:01:27.860Z,20.99
2023-03-26T21:03:54.528Z,20.99
2023-03-26T21:06:21.096Z,20.98
2023-03-26T21:08:47.898Z,20.96
2023-03-26T21:11:29.804Z,20.95
2023-03-26T21:14:03.697Z,20.96
2023-03-26T21:16:30.664Z,20.95
2023-03-26T21:18:57.739Z,20.93
2023-03-26T21:21:52.569Z,20.93
2023-03-26T21:24:33.165Z,20.93
2023-03-26T21:27:16.933Z,20.92
2023-03-26T21:29:43.790Z,20.93
2023-03-26T21:32:11.142Z,20.91
2023-03-26T21:37:07.322Z,20.91
2023-03-26T21:39:34.205Z,20.92
2023-03-26T21:42:05.018Z,20.91
2023-03-26T21:44:33.467Z,20.91
2023-03-26T21:47:00.379Z,20.91
2023-03-26T21:49:27.549Z,20.92
2023-03-26T21:51:54.462Z,20.91
2023-03-26T21:54:28.915Z,20.89
2023-03-26T21:57:30.852Z,20.90
2023-03-26T22:00:37.184Z,20.89
2023-03-26T22:03:16.098Z,20.88
2023-03-26T22:06:07.359Z,20.88
2023-03-26T22:08:38.869Z,20.87
2023-03-26T22:11:06.609Z,20.87
2023-03-26T22:13:35.536Z,20.86
2023-03-26T22:16:02.264Z,20.86
2023-03-26T22:18:30.007Z,20.87
2023-03-26T22:20:57.642Z,20.85
2023-03-26T22:23:26.120Z,20.85
2023-03-26T22:25:52.969Z,20.85
2023-03-26T22:28:19.647Z,20.84
2023-03-26T22:30:46.627Z,20.84
2023-03-26T22:33:14.450Z,20.83
2023-03-26T22:35:44.566Z,20.82
2023-03-26T22:38:11.834Z,20.83
2023-03-26T22:40:38.734Z,20.82
2023-03-26T22:43:05.668Z,20.81
2023-03-26T22:45:32.587Z,20.80
2023-03-26T22:48:03.713Z,20.80
2023-03-26T22:50:31.772Z,20.79
2023-03-26T22:52:58.412Z,20.79
2023-03-26T22:55:28.800Z,20.79
2023-03-26T22:57:56.313Z,20.77
2023-03-26T23:00:22.916Z,20.78
2023-03-26T23:02:50.036Z,20.78
2023-03-26T23:05:19.529Z,20.77
2023-03-26T23:07:46.323Z,20.76
2023-03-26T23:10:13.036Z,20.74
2023-03-26T23:12:40.065Z,20.74
2023-03-26T23:15:07.242Z,20.74
2023-03-26T23:17:35.528Z,20.73
2023-03-26T23:20:06.066Z,20.71
2023-03-26T23:22:35.240Z,20.71
2023-03-26T23:25:02.043Z,20.70
2023-03-26T23:27:28.874Z,20.70
2023-03-26T23:29:55.904Z,20.70
2023-03-26T23:32:25.232Z,20.70
2023-03-26T23:34:52.695Z,20.68
2023-03-26T23:37:23.291Z,20.67
2023-03-26T23:39:50.987Z,20.68
2023-03-26T23:42:18.046Z,20.67
2023-03-26T23:44:56.956Z,20.67
2023-03-26T23:47:23.869Z,20.65
2023-03-26T23:49:50.589Z,20.65
2023-03-26T23:52:17.179Z,20.63
2023-03-26T23:54:44.706Z,20.62
2023-03-26T23:57:11.499Z,20.63
2023-03-26T23:59:38.314Z,20.63
